sensor_id;sensor_type;location;lat;lon;timestamp;P1;durP1;ratioP1;P2;durP2;ratioP2
42886;SDS011;29032;56.028;92.904;2022-12-10T00:03:21;8.00;;;3.33;;
42886;SDS011;29032;56.028;92.904;2022-12-10T00:08:23;8.93;;;3.97;;
42886;SDS011;29032;56.028;92.904;2022-12-10T00:13:25;8.13;;;3.87;;
42886;SDS011;29032;56.028;92.904;2022-12-10T00:18:29;9.00;;;3.53;;
42886;SDS011;29032;56.028;92.904;2022-12-10T00:23:31;8.17;;;3.70;;
42886;SDS011;29032;56.028;92.904;2022-12-10T00:28:33;6.63;;;3.13;;
42886;SDS011;29032;56.028;92.904;2022-12-10T00:33:37;5.63;;;3.23;;
42886;SDS011;29032;56.028;92.904;2022-12-10T00:38:40;9.27;;;4.40;;
42886;SDS011;29032;56.028;92.904;2022-12-10T00:43:44;7.90;;;3.50;;
42886;SDS011;29032;56.028;92.904;2022-12-10T00:48:48;5.77;;;3.60;;
42886;SDS011;29032;56.028;92.904;2022-12-10T00:53:50;6.27;;;3.37;;
42886;SDS011;29032;56.028;92.904;2022-12-10T00:58:54;5.27;;;3.23;;
42886;SDS011;29032;56.028;92.904;2022-12-10T01:03:59;11.20;;;3.50;;
42886;SDS011;29032;56.028;92.904;2022-12-10T01:09:03;6.60;;;3.57;;
42886;SDS011;29032;56.028;92.904;2022-12-10T01:14:08;8.33;;;3.97;;
42886;SDS011;29032;56.028;92.904;2022-12-10T01:19:14;7.50;;;3.73;;
42886;SDS011;29032;56.028;92.904;2022-12-10T01:24:16;7.57;;;3.60;;
42886;SDS011;29032;56.028;92.904;2022-12-10T01:29:19;8.97;;;3.70;;
42886;SDS011;29032;56.028;92.904;2022-12-10T01:34:22;8.40;;;3.80;;
42886;SDS011;29032;56.028;92.904;2022-12-10T01:39:25;8.87;;;3.50;;
42886;SDS011;29032;56.028;92.904;2022-12-10T01:50:05;9.50;;;3.90;;
42886;SDS011;29032;56.028;92.904;2022-12-10T02:00:46;6.50;;;3.87;;
42886;SDS011;29032;56.028;92.904;2022-12-10T02:06:00;7.63;;;3.30;;
42886;SDS011;29032;56.028;92.904;2022-12-10T02:11:10;7.80;;;3.83;;
42886;SDS011;29032;56.028;92.904;2022-12-10T02:16:19;8.90;;;3.80;;
42886;SDS011;29032;56.028;92.904;2022-12-10T02:21:28;6.55;;;3.92;;
42886;SDS011;29032;56.028;92.904;2022-12-10T02:26:37;6.87;;;3.47;;
42886;SDS011;29032;56.028;92.904;2022-12-10T02:31:47;8.57;;;3.73;;
42886;SDS011;29032;56.028;92.904;2022-12-10T02:36:53;10.80;;;4.40;;
42886;SDS011;29032;56.028;92.904;2022-12-10T02:41:59;10.10;;;4.43;;
42886;SDS011;29032;56.028;92.904;2022-12-10T02:47:07;10.05;;;3.95;;
42886;SDS011;29032;56.028;92.904;2022-12-10T02:52:14;11.07;;;4.47;;
42886;SDS011;29032;56.028;92.904;2022-12-10T02:57:25;11.83;;;4.83;;
42886;SDS011;29032;56.028;92.904;2022-12-10T03:02:40;11.67;;;5.50;;
42886;SDS011;29032;56.028;92.904;2022-12-10T03:07:53;12.15;;;5.28;;
42886;SDS011;29032;56.028;92.904;2022-12-10T03:13:03;10.50;;;4.67;;
42886;SDS011;29032;56.028;92.904;2022-12-10T03:18:11;6.90;;;3.70;;
42886;SDS011;29032;56.028;92.904;2022-12-10T03:23:16;8.70;;;3.80;;
42886;SDS011;29032;56.028;92.904;2022-12-10T03:28:20;8.23;;;4.57;;
42886;SDS011;29032;56.028;92.904;2022-12-10T03:33:25;11.13;;;5.07;;
42886;SDS011;29032;56.028;92.904;2022-12-10T03:38:27;10.90;;;4.50;;
42886;SDS011;29032;56.028;92.904;2022-12-10T03:43:29;10.50;;;4.80;;
42886;SDS011;29032;56.028;92.904;2022-12-10T03:48:33;10.93;;;4.53;;
42886;SDS011;29032;56.028;92.904;2022-12-10T03:53:35;13.90;;;4.40;;
42886;SDS011;29032;56.028;92.904;2022-12-10T03:58:37;11.50;;;5.13;;
42886;SDS011;29032;56.028;92.904;2022-12-10T04:03:41;8.83;;;4.53;;
42886;SDS011;29032;56.028;92.904;2022-12-10T04:08:44;10.80;;;4.77;;
42886;SDS011;29032;56.028;92.904;2022-12-10T04:13:46;8.20;;;4.57;;
42886;SDS011;29032;56.028;92.904;2022-12-10T04:18:50;10.63;;;5.43;;
42886;SDS011;29032;56.028;92.904;2022-12-10T04:23:52;14.20;;;5.47;;
42886;SDS011;29032;56.028;92.904;2022-12-10T04:28:54;16.60;;;6.93;;
42886;SDS011;29032;56.028;92.904;2022-12-10T04:33:58;9.63;;;5.57;;
42886;SDS011;29032;56.028;92.904;2022-12-10T04:39:00;12.57;;;5.80;;
42886;SDS011;29032;56.028;92.904;2022-12-10T04:44:02;8.67;;;4.90;;
42886;SDS011;29032;56.028;92.904;2022-12-10T04:49:06;19.77;;;7.27;;
42886;SDS011;29032;56.028;92.904;2022-12-10T04:54:08;10.80;;;5.03;;
42886;SDS011;29032;56.028;92.904;2022-12-10T04:59:11;13.00;;;5.23;;
42886;SDS011;29032;56.028;92.904;2022-12-10T05:04:15;11.53;;;4.40;;
42886;SDS011;29032;56.028;92.904;2022-12-10T05:09:18;8.83;;;5.20;;
42886;SDS011;29032;56.028;92.904;2022-12-10T05:14:21;14.00;;;5.00;;
42886;SDS011;29032;56.028;92.904;2022-12-10T05:19:24;10.63;;;5.07;;
42886;SDS011;29032;56.028;92.904;2022-12-10T05:24:26;13.87;;;5.77;;
42886;SDS011;29032;56.028;92.904;2022-12-10T05:29:29;12.60;;;5.03;;
42886;SDS011;29032;56.028;92.904;2022-12-10T05:34:34;11.07;;;4.60;;
42886;SDS011;29032;56.028;92.904;2022-12-10T05:39:37;14.97;;;5.77;;
42886;SDS011;29032;56.028;92.904;2022-12-10T05:44:39;14.70;;;6.07;;
42886;SDS011;29032;56.028;92.904;2022-12-10T05:49:42;8.10;;;4.83;;
42886;SDS011;29032;56.028;92.904;2022-12-10T05:54:44;9.17;;;4.53;;
42886;SDS011;29032;56.028;92.904;2022-12-10T05:59:47;9.87;;;4.93;;
42886;SDS011;29032;56.028;92.904;2022-12-10T06:04:50;11.50;;;5.10;;
42886;SDS011;29032;56.028;92.904;2022-12-10T06:09:53;13.07;;;5.93;;
42886;SDS011;29032;56.028;92.904;2022-12-10T06:14:55;12.90;;;5.33;;
42886;SDS011;29032;56.028;92.904;2022-12-10T06:19:58;12.40;;;5.63;;
42886;SDS011;29032;56.028;92.904;2022-12-10T06:25:00;12.83;;;5.83;;
42886;SDS011;29032;56.028;92.904;2022-12-10T06:30:03;12.37;;;6.20;;
42886;SDS011;29032;56.028;92.904;2022-12-10T06:35:08;13.20;;;6.60;;
42886;SDS011;29032;56.028;92.904;2022-12-10T06:40:11;16.27;;;5.57;;
42886;SDS011;29032;56.028;92.904;2022-12-10T06:45:14;13.27;;;5.67;;
42886;SDS011;29032;56.028;92.904;2022-12-10T06:50:20;12.00;;;5.60;;
42886;SDS011;29032;56.028;92.904;2022-12-10T06:55:22;13.67;;;5.63;;
42886;SDS011;29032;56.028;92.904;2022-12-10T07:00:24;10.40;;;5.40;;
42886;SDS011;29032;56.028;92.904;2022-12-10T07:05:28;10.97;;;5.50;;
42886;SDS011;29032;56.028;92.904;2022-12-10T07:10:30;11.53;;;5.40;;
42886;SDS011;29032;56.028;92.904;2022-12-10T07:15:32;16.30;;;5.70;;
42886;SDS011;29032;56.028;92.904;2022-12-10T07:20:36;15.37;;;5.80;;
42886;SDS011;29032;56.028;92.904;2022-12-10T07:25:38;15.50;;;7.60;;
42886;SDS011;29032;56.028;92.904;2022-12-10T07:30:40;13.57;;;6.17;;
42886;SDS011;29032;56.028;92.904;2022-12-10T07:35:44;13.97;;;6.00;;
42886;SDS011;29032;56.028;92.904;2022-12-10T07:40:46;12.60;;;5.40;;
42886;SDS011;29032;56.028;92.904;2022-12-10T07:45:49;11.03;;;5.90;;
42886;SDS011;29032;56.028;92.904;2022-12-10T07:50:56;13.93;;;6.57;;
42886;SDS011;29032;56.028;92.904;2022-12-10T07:55:59;10.87;;;5.20;;
42886;SDS011;29032;56.028;92.904;2022-12-10T08:01:05;14.60;;;7.47;;
42886;SDS011;29032;56.028;92.904;2022-12-10T08:06:11;13.27;;;6.35;;
42886;SDS011;29032;56.028;92.904;2022-12-10T08:11:15;13.07;;;7.07;;
42886;SDS011;29032;56.028;92.904;2022-12-10T08:16:19;10.70;;;5.33;;
42886;SDS011;29032;56.028;92.904;2022-12-10T08:21:25;12.63;;;5.80;;
42886;SDS011;29032;56.028;92.904;2022-12-10T08:26:29;13.93;;;5.57;;
42886;SDS011;29032;56.028;92.904;2022-12-10T08:31:32;12.43;;;6.17;;
42886;SDS011;29032;56.028;92.904;2022-12-10T08:36:36;11.80;;;6.00;;
42886;SDS011;29032;56.028;92.904;2022-12-10T08:41:38;22.43;;;6.50;;
42886;SDS011;29032;56.028;92.904;2022-12-10T08:46:40;10.13;;;5.37;;
42886;SDS011;29032;56.028;92.904;2022-12-10T08:51:44;12.50;;;6.23;;
42886;SDS011;29032;56.028;92.904;2022-12-10T08:56:46;11.70;;;5.87;;
42886;SDS011;29032;56.028;92.904;2022-12-10T09:01:48;13.07;;;6.53;;
42886;SDS011;29032;56.028;92.904;2022-12-10T09:06:54;13.53;;;5.90;;
42886;SDS011;29032;56.028;92.904;2022-12-10T09:11:56;10.23;;;6.07;;
42886;SDS011;29032;56.028;92.904;2022-12-10T09:16:58;13.07;;;5.50;;
42886;SDS011;29032;56.028;92.904;2022-12-10T09:22:05;12.13;;;5.93;;
42886;SDS011;29032;56.028;92.904;2022-12-10T09:27:07;10.97;;;5.40;;
42886;SDS011;29032;56.028;92.904;2022-12-10T09:32:09;10.47;;;4.57;;
42886;SDS011;29032;56.028;92.904;2022-12-10T09:37:13;10.37;;;5.10;;
42886;SDS011;29032;56.028;92.904;2022-12-10T09:42:20;12.00;;;5.97;;
42886;SDS011;29032;56.028;92.904;2022-12-10T09:47:31;14.10;;;6.23;;
42886;SDS011;29032;56.028;92.904;2022-12-10T09:52:39;9.63;;;5.20;;
42886;SDS011;29032;56.028;92.904;2022-12-10T09:57:45;16.73;;;6.57;;
42886;SDS011;29032;56.028;92.904;2022-12-10T10:02:49;13.63;;;6.20;;
42886;SDS011;29032;56.028;92.904;2022-12-10T10:07:55;15.10;;;5.97;;
42886;SDS011;29032;56.028;92.904;2022-12-10T10:13:00;10.97;;;6.20;;
42886;SDS011;29032;56.028;92.904;2022-12-10T10:18:14;10.67;;;4.87;;
42886;SDS011;29032;56.028;92.904;2022-12-10T10:23:26;13.17;;;5.70;;
42886;SDS011;29032;56.028;92.904;2022-12-10T10:28:28;11.33;;;5.23;;
42886;SDS011;29032;56.028;92.904;2022-12-10T10:33:31;11.43;;;5.20;;
42886;SDS011;29032;56.028;92.904;2022-12-10T10:38:50;10.20;;;5.77;;
42886;SDS011;29032;56.028;92.904;2022-12-10T10:43:54;11.87;;;4.40;;
42886;SDS011;29032;56.028;92.904;2022-12-10T10:59:45;14.07;;;5.67;;
42886;SDS011;29032;56.028;92.904;2022-12-10T11:04:49;12.13;;;5.30;;
42886;SDS011;29032;56.028;92.904;2022-12-10T11:09:54;13.80;;;5.20;;
42886;SDS011;29032;56.028;92.904;2022-12-10T11:14:56;12.70;;;6.07;;
42886;SDS011;29032;56.028;92.904;2022-12-10T11:19:59;11.30;;;5.40;;
42886;SDS011;29032;56.028;92.904;2022-12-10T11:25:05;10.10;;;5.50;;
42886;SDS011;29032;56.028;92.904;2022-12-10T11:30:13;18.07;;;7.23;;
42886;SDS011;29032;56.028;92.904;2022-12-10T11:35:19;15.07;;;7.20;;
42886;SDS011;29032;56.028;92.904;2022-12-10T11:40:30;14.87;;;5.83;;
42886;SDS011;29032;56.028;92.904;2022-12-10T11:45:40;13.67;;;6.13;;
42886;SDS011;29032;56.028;92.904;2022-12-10T11:50:55;12.47;;;6.27;;
42886;SDS011;29032;56.028;92.904;2022-12-10T11:56:08;11.57;;;5.80;;
42886;SDS011;29032;56.028;92.904;2022-12-10T12:01:21;12.23;;;5.47;;
42886;SDS011;29032;56.028;92.904;2022-12-10T12:06:38;10.50;;;5.10;;
42886;SDS011;29032;56.028;92.904;2022-12-10T12:12:02;11.33;;;5.10;;
42886;SDS011;29032;56.028;92.904;2022-12-10T12:17:19;10.37;;;5.33;;
42886;SDS011;29032;56.028;92.904;2022-12-10T12:22:25;18.70;;;7.50;;
42886;SDS011;29032;56.028;92.904;2022-12-10T12:27:33;10.90;;;5.33;;
42886;SDS011;29032;56.028;92.904;2022-12-10T12:32:46;12.17;;;5.60;;
42886;SDS011;29032;56.028;92.904;2022-12-10T12:37:54;15.87;;;6.23;;
42886;SDS011;29032;56.028;92.904;2022-12-10T12:43:02;20.07;;;6.73;;
42886;SDS011;29032;56.028;92.904;2022-12-10T12:48:13;14.30;;;6.03;;
42886;SDS011;29032;56.028;92.904;2022-12-10T12:53:27;16.33;;;5.90;;
42886;SDS011;29032;56.028;92.904;2022-12-10T12:58:36;12.70;;;6.07;;
42886;SDS011;29032;56.028;92.904;2022-12-10T13:03:42;13.77;;;5.80;;
42886;SDS011;29032;56.028;92.904;2022-12-10T13:08:46;16.53;;;5.70;;
42886;SDS011;29032;56.028;92.904;2022-12-10T13:14:11;13.47;;;5.20;;
42886;SDS011;29032;56.028;92.904;2022-12-10T13:19:28;10.07;;;4.47;;
42886;SDS011;29032;56.028;92.904;2022-12-10T13:35:41;10.77;;;5.63;;
42886;SDS011;29032;56.028;92.904;2022-12-10T13:40:57;9.43;;;4.73;;
42886;SDS011;29032;56.028;92.904;2022-12-10T13:51:39;14.17;;;5.73;;
42886;SDS011;29032;56.028;92.904;2022-12-10T13:56:57;12.63;;;5.27;;
42886;SDS011;29032;56.028;92.904;2022-12-10T14:02:17;17.37;;;7.17;;
42886;SDS011;29032;56.028;92.904;2022-12-10T14:07:38;12.80;;;5.63;;
42886;SDS011;29032;56.028;92.904;2022-12-10T14:12:41;16.87;;;7.70;;
42886;SDS011;29032;56.028;92.904;2022-12-10T14:17:46;17.53;;;7.50;;
42886;SDS011;29032;56.028;92.904;2022-12-10T14:22:51;15.63;;;7.17;;
42886;SDS011;29032;56.028;92.904;2022-12-10T14:27:55;14.97;;;6.47;;
42886;SDS011;29032;56.028;92.904;2022-12-10T14:32:58;13.83;;;6.70;;
42886;SDS011;29032;56.028;92.904;2022-12-10T14:38:01;13.80;;;6.00;;
42886;SDS011;29032;56.028;92.904;2022-12-10T14:43:04;15.43;;;7.00;;
42886;SDS011;29032;56.028;92.904;2022-12-10T14:48:13;18.88;;;7.70;;
42886;SDS011;29032;56.028;92.904;2022-12-10T14:53:17;16.93;;;7.30;;
42886;SDS011;29032;56.028;92.904;2022-12-10T14:58:22;11.63;;;6.70;;
42886;SDS011;29032;56.028;92.904;2022-12-10T15:03:31;13.27;;;6.23;;
42886;SDS011;29032;56.028;92.904;2022-12-10T15:13:39;15.60;;;8.60;;
42886;SDS011;29032;56.028;92.904;2022-12-10T15:18:44;16.20;;;7.90;;
42886;SDS011;29032;56.028;92.904;2022-12-10T15:23:47;27.07;;;10.53;;
42886;SDS011;29032;56.028;92.904;2022-12-10T15:28:50;27.10;;;10.47;;
42886;SDS011;29032;56.028;92.904;2022-12-10T15:33:55;27.00;;;9.43;;
42886;SDS011;29032;56.028;92.904;2022-12-10T15:39:01;20.77;;;8.50;;
42886;SDS011;29032;56.028;92.904;2022-12-10T15:44:05;29.23;;;8.93;;
42886;SDS011;29032;56.028;92.904;2022-12-10T15:49:19;17.50;;;7.80;;
42886;SDS011;29032;56.028;92.904;2022-12-10T15:54:22;18.67;;;8.17;;
42886;SDS011;29032;56.028;92.904;2022-12-10T15:59:32;21.77;;;8.33;;
42886;SDS011;29032;56.028;92.904;2022-12-10T16:04:35;18.13;;;7.60;;
42886;SDS011;29032;56.028;92.904;2022-12-10T16:09:38;18.80;;;7.53;;
42886;SDS011;29032;56.028;92.904;2022-12-10T16:14:41;25.17;;;10.17;;
42886;SDS011;29032;56.028;92.904;2022-12-10T16:19:49;22.80;;;8.87;;
42886;SDS011;29032;56.028;92.904;2022-12-10T16:24:52;27.00;;;9.43;;
42886;SDS011;29032;56.028;92.904;2022-12-10T16:29:54;21.23;;;8.87;;
42886;SDS011;29032;56.028;92.904;2022-12-10T16:34:57;23.23;;;8.17;;
42886;SDS011;29032;56.028;92.904;2022-12-10T16:40:00;14.33;;;6.73;;
42886;SDS011;29032;56.028;92.904;2022-12-10T16:45:02;23.10;;;8.37;;
42886;SDS011;29032;56.028;92.904;2022-12-10T16:50:15;17.37;;;8.00;;
42886;SDS011;29032;56.028;92.904;2022-12-10T16:55:19;19.20;;;8.37;;
42886;SDS011;29032;56.028;92.904;2022-12-10T17:00:23;10.83;;;4.77;;
42886;SDS011;29032;56.028;92.904;2022-12-10T17:05:28;30.33;;;11.37;;
42886;SDS011;29032;56.028;92.904;2022-12-10T17:10:34;24.33;;;9.87;;
42886;SDS011;29032;56.028;92.904;2022-12-10T17:15:37;16.13;;;6.43;;
42886;SDS011;29032;56.028;92.904;2022-12-10T17:20:40;19.33;;;9.00;;
42886;SDS011;29032;56.028;92.904;2022-12-10T17:25:43;18.50;;;9.10;;
42886;SDS011;29032;56.028;92.904;2022-12-10T17:30:47;26.83;;;10.77;;
42886;SDS011;29032;56.028;92.904;2022-12-10T17:35:51;38.10;;;12.93;;
42886;SDS011;29032;56.028;92.904;2022-12-10T17:40:54;13.00;;;6.83;;
42886;SDS011;29032;56.028;92.904;2022-12-10T17:45:56;25.90;;;8.47;;
42886;SDS011;29032;56.028;92.904;2022-12-10T17:51:00;19.77;;;9.17;;
42886;SDS011;29032;56.028;92.904;2022-12-10T17:56:02;17.40;;;7.40;;
42886;SDS011;29032;56.028;92.904;2022-12-10T18:01:07;13.00;;;6.07;;
42886;SDS011;29032;56.028;92.904;2022-12-10T18:06:13;16.33;;;6.00;;
42886;SDS011;29032;56.028;92.904;2022-12-10T18:16:20;14.53;;;7.17;;
42886;SDS011;29032;56.028;92.904;2022-12-10T18:21:26;24.40;;;7.13;;
42886;SDS011;29032;56.028;92.904;2022-12-10T18:26:29;15.60;;;6.53;;
42886;SDS011;29032;56.028;92.904;2022-12-10T18:31:33;19.13;;;7.27;;
42886;SDS011;29032;56.028;92.904;2022-12-10T18:36:39;16.77;;;5.83;;
42886;SDS011;29032;56.028;92.904;2022-12-10T18:41:43;16.00;;;6.73;;
42886;SDS011;29032;56.028;92.904;2022-12-10T18:46:46;15.57;;;7.07;;
42886;SDS011;29032;56.028;92.904;2022-12-10T18:51:50;15.63;;;5.73;;
42886;SDS011;29032;56.028;92.904;2022-12-10T18:56:53;18.83;;;6.73;;
42886;SDS011;29032;56.028;92.904;2022-12-10T19:01:55;14.37;;;5.83;;
42886;SDS011;29032;56.028;92.904;2022-12-10T19:07:00;16.47;;;6.87;;
42886;SDS011;29032;56.028;92.904;2022-12-10T19:12:02;13.20;;;6.50;;
42886;SDS011;29032;56.028;92.904;2022-12-10T19:17:05;19.10;;;6.60;;
42886;SDS011;29032;56.028;92.904;2022-12-10T19:22:08;15.33;;;6.23;;
42886;SDS011;29032;56.028;92.904;2022-12-10T19:27:10;8.33;;;3.80;;
42886;SDS011;29032;56.028;92.904;2022-12-10T19:32:12;8.73;;;4.23;;
42886;SDS011;29032;56.028;92.904;2022-12-10T19:37:16;16.83;;;7.63;;
42886;SDS011;29032;56.028;92.904;2022-12-10T19:42:18;17.33;;;6.70;;
42886;SDS011;29032;56.028;92.904;2022-12-10T19:47:20;19.20;;;7.77;;
42886;SDS011;29032;56.028;92.904;2022-12-10T19:52:24;20.30;;;7.43;;
42886;SDS011;29032;56.028;92.904;2022-12-10T19:57:26;14.77;;;5.83;;
42886;SDS011;29032;56.028;92.904;2022-12-10T20:02:28;14.17;;;5.60;;
42886;SDS011;29032;56.028;92.904;2022-12-10T20:07:32;14.37;;;5.60;;
42886;SDS011;29032;56.028;92.904;2022-12-10T20:12:34;14.67;;;6.07;;
42886;SDS011;29032;56.028;92.904;2022-12-10T20:17:36;15.80;;;6.13;;
42886;SDS011;29032;56.028;92.904;2022-12-10T20:22:40;11.17;;;5.00;;
42886;SDS011;29032;56.028;92.904;2022-12-10T20:27:42;12.00;;;6.70;;
42886;SDS011;29032;56.028;92.904;2022-12-10T20:32:45;13.43;;;5.87;;
42886;SDS011;29032;56.028;92.904;2022-12-10T20:37:48;14.10;;;5.83;;
42886;SDS011;29032;56.028;92.904;2022-12-10T20:42:51;15.07;;;5.83;;
42886;SDS011;29032;56.028;92.904;2022-12-10T20:47:53;13.63;;;5.63;;
42886;SDS011;29032;56.028;92.904;2022-12-10T20:52:57;13.17;;;6.03;;
42886;SDS011;29032;56.028;92.904;2022-12-10T20:58:00;10.50;;;5.13;;
42886;SDS011;29032;56.028;92.904;2022-12-10T21:03:02;15.37;;;5.93;;
42886;SDS011;29032;56.028;92.904;2022-12-10T21:08:06;10.37;;;5.10;;
42886;SDS011;29032;56.028;92.904;2022-12-10T21:13:08;15.57;;;5.10;;
42886;SDS011;29032;56.028;92.904;2022-12-10T21:18:11;10.27;;;4.53;;
42886;SDS011;29032;56.028;92.904;2022-12-10T21:23:16;10.80;;;5.70;;
42886;SDS011;29032;56.028;92.904;2022-12-10T21:28:20;12.82;;;4.47;;
42886;SDS011;29032;56.028;92.904;2022-12-10T21:33:23;15.83;;;5.07;;
42886;SDS011;29032;56.028;92.904;2022-12-10T21:38:27;13.30;;;5.30;;
42886;SDS011;29032;56.028;92.904;2022-12-10T21:43:29;15.03;;;6.10;;
42886;SDS011;29032;56.028;92.904;2022-12-10T21:48:31;14.30;;;5.13;;
42886;SDS011;29032;56.028;92.904;2022-12-10T21:53:35;12.20;;;5.60;;
42886;SDS011;29032;56.028;92.904;2022-12-10T21:58:37;13.07;;;5.20;;
42886;SDS011;29032;56.028;92.904;2022-12-10T22:03:40;14.63;;;5.37;;
42886;SDS011;29032;56.028;92.904;2022-12-10T22:08:44;17.57;;;5.87;;
42886;SDS011;29032;56.028;92.904;2022-12-10T22:13:46;15.27;;;5.87;;
42886;SDS011;29032;56.028;92.904;2022-12-10T22:18:48;15.07;;;5.80;;
42886;SDS011;29032;56.028;92.904;2022-12-10T22:23:52;16.03;;;6.73;;
42886;SDS011;29032;56.028;92.904;2022-12-10T22:28:55;11.93;;;4.87;;
42886;SDS011;29032;56.028;92.904;2022-12-10T22:33:57;9.63;;;4.57;;
42886;SDS011;29032;56.028;92.904;2022-12-10T22:39:01;16.33;;;6.33;;
42886;SDS011;29032;56.028;92.904;2022-12-10T22:44:03;14.80;;;5.60;;
42886;SDS011;29032;56.028;92.904;2022-12-10T22:49:05;22.33;;;5.67;;
42886;SDS011;29032;56.028;92.904;2022-12-10T22:54:09;17.53;;;6.57;;
42886;SDS011;29032;56.028;92.904;2022-12-10T22:59:11;16.43;;;5.50;;
42886;SDS011;29032;56.028;92.904;2022-12-10T23:04:13;19.70;;;7.17;;
42886;SDS011;29032;56.028;92.904;2022-12-10T23:09:17;14.90;;;6.93;;
42886;SDS011;29032;56.028;92.904;2022-12-10T23:14:19;17.87;;;5.57;;
42886;SDS011;29032;56.028;92.904;2022-12-10T23:19:22;12.87;;;5.93;;
42886;SDS011;29032;56.028;92.904;2022-12-10T23:24:25;16.60;;;7.33;;
42886;SDS011;29032;56.028;92.904;2022-12-10T23:29:28;16.03;;;6.40;;
42886;SDS011;29032;56.028;92.904;2022-12-10T23:34:30;14.77;;;5.50;;
42886;SDS011;29032;56.028;92.904;2022-12-10T23:39:37;15.40;;;6.10;;
42886;SDS011;29032;56.028;92.904;2022-12-10T23:44:39;18.40;;;5.97;;
42886;SDS011;29032;56.028;92.904;2022-12-10T23:49:41;18.33;;;6.30;;
42886;SDS011;29032;56.028;92.904;2022-12-10T23:54:45;15.60;;;6.10;;
42886;SDS011;29032;56.028;92.904;2022-12-10T23:59:50;19.90;;;6.53;;
